sensor_id;sensor_type;location;lat;lon;timestamp;P1;durP1;ratioP1;P2;durP2;ratioP2
14526;SDS011;7350;51.208;4.238;2023-02-01T00:02:12;4.78;;;2.60;;
14526;SDS011;7350;51.208;4.238;2023-02-01T00:04:39;4.75;;;2.55;;
14526;SDS011;7350;51.208;4.238;2023-02-01T00:07:06;5.10;;;2.60;;
14526;SDS011;7350;51.208;4.238;2023-02-01T00:09:32;5.00;;;2.47;;
14526;SDS011;7350;51.208;4.238;2023-02-01T00:11:59;5.30;;;2.72;;
14526;SDS011;7350;51.208;4.238;2023-02-01T00:14:29;6.20;;;2.92;;
14526;SDS011;7350;51.208;4.238;2023-02-01T00:16:57;4.57;;;2.50;;
14526;SDS011;7350;51.208;4.238;2023-02-01T00:19:24;4.82;;;2.60;;
14526;SDS011;7350;51.208;4.238;2023-02-01T00:21:51;5.50;;;2.63;;
14526;SDS011;7350;51.208;4.238;2023-02-01T00:24:18;6.30;;;2.60;;
14526;SDS011;7350;51.208;4.238;2023-02-01T00:26:45;5.93;;;3.03;;
14526;SDS011;7350;51.208;4.238;2023-02-01T00:29:13;5.07;;;2.80;;
14526;SDS011;7350;51.208;4.238;2023-02-01T00:31:43;4.65;;;2.78;;
14526;SDS011;7350;51.208;4.238;2023-02-01T00:34:11;3.65;;;2.35;;
14526;SDS011;7350;51.208;4.238;2023-02-01T00:36:39;6.75;;;3.10;;
14526;SDS011;7350;51.208;4.238;2023-02-01T00:39:06;5.85;;;2.53;;
14526;SDS011;7350;51.208;4.238;2023-02-01T00:41:33;4.85;;;2.65;;
14526;SDS011;7350;51.208;4.238;2023-02-01T00:44:00;7.97;;;3.10;;
14526;SDS011;7350;51.208;4.238;2023-02-01T00:46:27;5.05;;;2.75;;
14526;SDS011;7350;51.208;4.238;2023-02-01T00:48:56;6.38;;;3.10;;
14526;SDS011;7350;51.208;4.238;2023-02-01T00:51:23;6.70;;;2.92;;
14526;SDS011;7350;51.208;4.238;2023-02-01T00:53:52;5.28;;;3.22;;
14526;SDS011;7350;51.208;4.238;2023-02-01T00:56:19;4.30;;;2.90;;
14526;SDS011;7350;51.208;4.238;2023-02-01T00:58:46;4.88;;;2.63;;
14526;SDS011;7350;51.208;4.238;2023-02-01T01:01:14;5.32;;;2.92;;
14526;SDS011;7350;51.208;4.238;2023-02-01T01:03:43;5.68;;;2.88;;
14526;SDS011;7350;51.208;4.238;2023-02-01T01:06:13;4.18;;;2.55;;
14526;SDS011;7350;51.208;4.238;2023-02-01T01:08:41;5.88;;;2.80;;
14526;SDS011;7350;51.208;4.238;2023-02-01T01:11:11;4.18;;;2.47;;
14526;SDS011;7350;51.208;4.238;2023-02-01T01:13:40;5.10;;;2.92;;
14526;SDS011;7350;51.208;4.238;2023-02-01T01:16:09;4.25;;;2.17;;
14526;SDS011;7350;51.208;4.238;2023-02-01T01:18:36;4.88;;;2.60;;
14526;SDS011;7350;51.208;4.238;2023-02-01T01:21:04;4.85;;;2.72;;
14526;SDS011;7350;51.208;4.238;2023-02-01T01:23:33;3.72;;;2.30;;
14526;SDS011;7350;51.208;4.238;2023-02-01T01:26:00;5.72;;;2.58;;
14526;SDS011;7350;51.208;4.238;2023-02-01T01:28:30;3.65;;;2.22;;
14526;SDS011;7350;51.208;4.238;2023-02-01T01:30:57;5.10;;;2.85;;
14526;SDS011;7350;51.208;4.238;2023-02-01T01:33:24;3.88;;;2.35;;
14526;SDS011;7350;51.208;4.238;2023-02-01T01:35:51;4.80;;;2.53;;
14526;SDS011;7350;51.208;4.238;2023-02-01T01:38:18;3.70;;;2.45;;
14526;SDS011;7350;51.208;4.238;2023-02-01T01:40:47;5.68;;;2.50;;
14526;SDS011;7350;51.208;4.238;2023-02-01T01:43:16;5.60;;;3.10;;
14526;SDS011;7350;51.208;4.238;2023-02-01T01:45:45;5.97;;;2.88;;
14526;SDS011;7350;51.208;4.238;2023-02-01T01:48:13;3.75;;;2.42;;
14526;SDS011;7350;51.208;4.238;2023-02-01T01:50:44;4.50;;;2.60;;
14526;SDS011;7350;51.208;4.238;2023-02-01T01:53:16;6.00;;;2.92;;
14526;SDS011;7350;51.208;4.238;2023-02-01T01:55:48;4.70;;;2.25;;
14526;SDS011;7350;51.208;4.238;2023-02-01T01:58:18;5.43;;;2.50;;
14526;SDS011;7350;51.208;4.238;2023-02-01T02:00:47;4.88;;;2.35;;
14526;SDS011;7350;51.208;4.238;2023-02-01T02:03:15;5.70;;;2.50;;
14526;SDS011;7350;51.208;4.238;2023-02-01T02:05:45;5.60;;;2.45;;
14526;SDS011;7350;51.208;4.238;2023-02-01T02:08:14;5.95;;;2.80;;
14526;SDS011;7350;51.208;4.238;2023-02-01T02:10:43;6.45;;;2.78;;
14526;SDS011;7350;51.208;4.238;2023-02-01T02:13:31;4.20;;;2.35;;
14526;SDS011;7350;51.208;4.238;2023-02-01T02:16:05;5.95;;;2.40;;
14526;SDS011;7350;51.208;4.238;2023-02-01T02:18:44;5.88;;;2.40;;
14526;SDS011;7350;51.208;4.238;2023-02-01T02:21:23;4.70;;;2.35;;
14526;SDS011;7350;51.208;4.238;2023-02-01T02:27:14;5.03;;;2.30;;
14526;SDS011;7350;51.208;4.238;2023-02-01T02:29:56;4.80;;;2.38;;
14526;SDS011;7350;51.208;4.238;2023-02-01T02:32:51;4.15;;;2.00;;
14526;SDS011;7350;51.208;4.238;2023-02-01T02:35:34;5.55;;;2.40;;
14526;SDS011;7350;51.208;4.238;2023-02-01T02:38:12;5.95;;;2.47;;
14526;SDS011;7350;51.208;4.238;2023-02-01T02:40:46;6.13;;;2.50;;
14526;SDS011;7350;51.208;4.238;2023-02-01T02:43:20;4.70;;;2.30;;
14526;SDS011;7350;51.208;4.238;2023-02-01T02:46:06;4.88;;;2.22;;
14526;SDS011;7350;51.208;4.238;2023-02-01T02:48:55;5.00;;;2.20;;
14526;SDS011;7350;51.208;4.238;2023-02-01T02:51:28;5.82;;;2.50;;
14526;SDS011;7350;51.208;4.238;2023-02-01T02:54:20;3.95;;;2.20;;
14526;SDS011;7350;51.208;4.238;2023-02-01T02:57:08;5.30;;;2.13;;
14526;SDS011;7350;51.208;4.238;2023-02-01T02:59:57;5.47;;;2.50;;
14526;SDS011;7350;51.208;4.238;2023-02-01T03:02:42;6.07;;;2.50;;
14526;SDS011;7350;51.208;4.238;2023-02-01T03:05:31;3.80;;;2.20;;
14526;SDS011;7350;51.208;4.238;2023-02-01T03:08:08;5.03;;;2.40;;
14526;SDS011;7350;51.208;4.238;2023-02-01T03:13:26;5.05;;;2.20;;
14526;SDS011;7350;51.208;4.238;2023-02-01T03:15:59;4.68;;;2.55;;
14526;SDS011;7350;51.208;4.238;2023-02-01T03:18:32;4.50;;;2.10;;
14526;SDS011;7350;51.208;4.238;2023-02-01T03:21:04;4.55;;;2.25;;
14526;SDS011;7350;51.208;4.238;2023-02-01T03:23:37;5.38;;;2.85;;
14526;SDS011;7350;51.208;4.238;2023-02-01T03:26:05;5.60;;;2.35;;
14526;SDS011;7350;51.208;4.238;2023-02-01T03:28:37;5.80;;;2.58;;
14526;SDS011;7350;51.208;4.238;2023-02-01T03:31:08;7.00;;;3.22;;
14526;SDS011;7350;51.208;4.238;2023-02-01T03:33:35;5.03;;;2.25;;
14526;SDS011;7350;51.208;4.238;2023-02-01T03:36:05;4.70;;;2.40;;
14526;SDS011;7350;51.208;4.238;2023-02-01T03:38:43;4.47;;;2.20;;
14526;SDS011;7350;51.208;4.238;2023-02-01T03:41:18;4.55;;;2.35;;
14526;SDS011;7350;51.208;4.238;2023-02-01T03:43:53;4.70;;;2.50;;
14526;SDS011;7350;51.208;4.238;2023-02-01T03:46:27;5.10;;;2.65;;
14526;SDS011;7350;51.208;4.238;2023-02-01T03:48:59;6.63;;;2.47;;
14526;SDS011;7350;51.208;4.238;2023-02-01T03:51:29;7.82;;;2.78;;
14526;SDS011;7350;51.208;4.238;2023-02-01T03:53:59;6.28;;;2.58;;
14526;SDS011;7350;51.208;4.238;2023-02-01T03:56:29;4.32;;;2.38;;
14526;SDS011;7350;51.208;4.238;2023-02-01T03:59:02;4.53;;;2.47;;
14526;SDS011;7350;51.208;4.238;2023-02-01T04:01:29;5.68;;;2.78;;
14526;SDS011;7350;51.208;4.238;2023-02-01T04:03:57;5.45;;;2.42;;
14526;SDS011;7350;51.208;4.238;2023-02-01T04:06:24;6.95;;;2.50;;
14526;SDS011;7350;51.208;4.238;2023-02-01T04:08:51;4.95;;;2.75;;
14526;SDS011;7350;51.208;4.238;2023-02-01T04:11:19;6.32;;;2.38;;
14526;SDS011;7350;51.208;4.238;2023-02-01T04:13:46;6.60;;;3.08;;
14526;SDS011;7350;51.208;4.238;2023-02-01T04:16:13;5.85;;;2.67;;
14526;SDS011;7350;51.208;4.238;2023-02-01T04:18:40;5.30;;;2.33;;
14526;SDS011;7350;51.208;4.238;2023-02-01T04:21:07;4.90;;;2.30;;
14526;SDS011;7350;51.208;4.238;2023-02-01T04:23:34;5.68;;;2.38;;
14526;SDS011;7350;51.208;4.238;2023-02-01T04:26:02;4.47;;;2.33;;
14526;SDS011;7350;51.208;4.238;2023-02-01T04:28:32;4.18;;;2.30;;
14526;SDS011;7350;51.208;4.238;2023-02-01T04:30:59;5.63;;;2.38;;
14526;SDS011;7350;51.208;4.238;2023-02-01T04:33:26;6.53;;;2.10;;
14526;SDS011;7350;51.208;4.238;2023-02-01T04:35:52;6.57;;;3.05;;
14526;SDS011;7350;51.208;4.238;2023-02-01T04:38:19;7.28;;;2.78;;
14526;SDS011;7350;51.208;4.238;2023-02-01T04:40:47;6.97;;;2.40;;
14526;SDS011;7350;51.208;4.238;2023-02-01T04:43:14;5.80;;;2.78;;
14526;SDS011;7350;51.208;4.238;2023-02-01T04:45:45;6.57;;;2.50;;
14526;SDS011;7350;51.208;4.238;2023-02-01T04:48:13;6.15;;;2.67;;
14526;SDS011;7350;51.208;4.238;2023-02-01T04:50:40;6.07;;;2.60;;
14526;SDS011;7350;51.208;4.238;2023-02-01T04:53:07;5.72;;;2.70;;
14526;SDS011;7350;51.208;4.238;2023-02-01T04:55:34;4.35;;;2.05;;
14526;SDS011;7350;51.208;4.238;2023-02-01T04:58:01;4.72;;;1.98;;
14526;SDS011;7350;51.208;4.238;2023-02-01T05:00:28;4.80;;;2.35;;
14526;SDS011;7350;51.208;4.238;2023-02-01T05:02:57;5.70;;;2.33;;
14526;SDS011;7350;51.208;4.238;2023-02-01T05:05:24;4.97;;;2.45;;
14526;SDS011;7350;51.208;4.238;2023-02-01T05:07:51;5.97;;;2.50;;
14526;SDS011;7350;51.208;4.238;2023-02-01T05:10:18;7.65;;;2.63;;
14526;SDS011;7350;51.208;4.238;2023-02-01T05:12:45;4.68;;;2.55;;
14526;SDS011;7350;51.208;4.238;2023-02-01T05:15:30;4.28;;;2.65;;
14526;SDS011;7350;51.208;4.238;2023-02-01T05:17:58;5.40;;;2.65;;
14526;SDS011;7350;51.208;4.238;2023-02-01T05:20:25;5.72;;;2.50;;
14526;SDS011;7350;51.208;4.238;2023-02-01T05:22:52;5.10;;;2.83;;
14526;SDS011;7350;51.208;4.238;2023-02-01T05:25:19;5.80;;;2.53;;
14526;SDS011;7350;51.208;4.238;2023-02-01T05:27:46;5.55;;;2.40;;
14526;SDS011;7350;51.208;4.238;2023-02-01T05:30:13;5.10;;;2.22;;
14526;SDS011;7350;51.208;4.238;2023-02-01T05:32:41;5.93;;;2.28;;
14526;SDS011;7350;51.208;4.238;2023-02-01T05:35:09;7.07;;;2.90;;
14526;SDS011;7350;51.208;4.238;2023-02-01T05:37:36;6.00;;;2.50;;
14526;SDS011;7350;51.208;4.238;2023-02-01T05:40:03;6.80;;;2.72;;
14526;SDS011;7350;51.208;4.238;2023-02-01T05:42:31;8.05;;;2.90;;
14526;SDS011;7350;51.208;4.238;2023-02-01T05:44:58;7.78;;;2.80;;
14526;SDS011;7350;51.208;4.238;2023-02-01T05:47:25;4.50;;;2.20;;
14526;SDS011;7350;51.208;4.238;2023-02-01T05:49:52;6.68;;;2.30;;
14526;SDS011;7350;51.208;4.238;2023-02-01T05:52:20;4.47;;;2.47;;
14526;SDS011;7350;51.208;4.238;2023-02-01T05:54:47;5.95;;;2.60;;
14526;SDS011;7350;51.208;4.238;2023-02-01T05:57:14;7.20;;;2.47;;
14526;SDS011;7350;51.208;4.238;2023-02-01T05:59:41;5.07;;;2.60;;
14526;SDS011;7350;51.208;4.238;2023-02-01T06:02:09;5.38;;;2.50;;
14526;SDS011;7350;51.208;4.238;2023-02-01T06:04:37;4.90;;;2.40;;
14526;SDS011;7350;51.208;4.238;2023-02-01T06:07:04;6.28;;;2.58;;
14526;SDS011;7350;51.208;4.238;2023-02-01T06:09:39;6.07;;;2.42;;
14526;SDS011;7350;51.208;4.238;2023-02-01T06:12:06;7.90;;;2.80;;
14526;SDS011;7350;51.208;4.238;2023-02-01T06:14:33;6.97;;;2.78;;
14526;SDS011;7350;51.208;4.238;2023-02-01T06:17:02;6.10;;;2.72;;
14526;SDS011;7350;51.208;4.238;2023-02-01T06:19:30;5.57;;;2.45;;
14526;SDS011;7350;51.208;4.238;2023-02-01T06:21:57;6.00;;;2.53;;
14526;SDS011;7350;51.208;4.238;2023-02-01T06:24:24;6.20;;;2.90;;
14526;SDS011;7350;51.208;4.238;2023-02-01T06:26:53;7.45;;;2.97;;
14526;SDS011;7350;51.208;4.238;2023-02-01T06:29:20;6.40;;;2.63;;
14526;SDS011;7350;51.208;4.238;2023-02-01T06:31:46;5.93;;;2.67;;
14526;SDS011;7350;51.208;4.238;2023-02-01T06:34:13;6.20;;;2.33;;
14526;SDS011;7350;51.208;4.238;2023-02-01T06:36:40;5.13;;;2.53;;
14526;SDS011;7350;51.208;4.238;2023-02-01T06:39:07;6.20;;;3.08;;
14526;SDS011;7350;51.208;4.238;2023-02-01T06:41:34;6.78;;;2.90;;
14526;SDS011;7350;51.208;4.238;2023-02-01T06:44:03;7.10;;;3.17;;
14526;SDS011;7350;51.208;4.238;2023-02-01T06:46:30;7.55;;;2.88;;
14526;SDS011;7350;51.208;4.238;2023-02-01T06:48:57;5.70;;;2.75;;
14526;SDS011;7350;51.208;4.238;2023-02-01T06:51:24;6.70;;;2.80;;
14526;SDS011;7350;51.208;4.238;2023-02-01T06:53:53;10.73;;;2.97;;
14526;SDS011;7350;51.208;4.238;2023-02-01T06:56:20;5.88;;;2.75;;
14526;SDS011;7350;51.208;4.238;2023-02-01T06:58:47;5.32;;;2.80;;
14526;SDS011;7350;51.208;4.238;2023-02-01T07:01:16;7.97;;;3.05;;
14526;SDS011;7350;51.208;4.238;2023-02-01T07:03:46;7.60;;;2.83;;
14526;SDS011;7350;51.208;4.238;2023-02-01T07:06:14;7.28;;;2.80;;
14526;SDS011;7350;51.208;4.238;2023-02-01T07:08:40;6.15;;;2.70;;
14526;SDS011;7350;51.208;4.238;2023-02-01T07:11:08;7.57;;;3.20;;
14526;SDS011;7350;51.208;4.238;2023-02-01T07:13:37;8.13;;;2.78;;
14526;SDS011;7350;51.208;4.238;2023-02-01T07:16:05;7.25;;;2.65;;
14526;SDS011;7350;51.208;4.238;2023-02-01T07:18:35;6.53;;;2.90;;
14526;SDS011;7350;51.208;4.238;2023-02-01T07:21:02;7.55;;;2.97;;
14526;SDS011;7350;51.208;4.238;2023-02-01T07:23:29;7.50;;;2.92;;
14526;SDS011;7350;51.208;4.238;2023-02-01T07:25:56;6.45;;;2.95;;
14526;SDS011;7350;51.208;4.238;2023-02-01T07:28:24;5.55;;;2.58;;
14526;SDS011;7350;51.208;4.238;2023-02-01T07:30:52;6.15;;;3.00;;
14526;SDS011;7350;51.208;4.238;2023-02-01T07:33:19;6.78;;;3.33;;
14526;SDS011;7350;51.208;4.238;2023-02-01T07:35:49;6.40;;;2.90;;
14526;SDS011;7350;51.208;4.238;2023-02-01T07:38:17;6.10;;;2.67;;
14526;SDS011;7350;51.208;4.238;2023-02-01T07:40:44;6.63;;;2.70;;
14526;SDS011;7350;51.208;4.238;2023-02-01T07:43:11;7.38;;;3.15;;
14526;SDS011;7350;51.208;4.238;2023-02-01T07:45:39;6.93;;;2.75;;
14526;SDS011;7350;51.208;4.238;2023-02-01T07:48:06;8.20;;;2.63;;
14526;SDS011;7350;51.208;4.238;2023-02-01T07:50:33;6.60;;;3.00;;
14526;SDS011;7350;51.208;4.238;2023-02-01T07:53:01;7.72;;;2.80;;
14526;SDS011;7350;51.208;4.238;2023-02-01T07:55:28;6.20;;;2.95;;
14526;SDS011;7350;51.208;4.238;2023-02-01T07:57:56;7.28;;;3.05;;
14526;SDS011;7350;51.208;4.238;2023-02-01T08:00:24;6.80;;;2.72;;
14526;SDS011;7350;51.208;4.238;2023-02-01T08:03:09;5.60;;;2.47;;
14526;SDS011;7350;51.208;4.238;2023-02-01T08:05:36;6.68;;;2.90;;
14526;SDS011;7350;51.208;4.238;2023-02-01T08:08:05;7.03;;;2.45;;
14526;SDS011;7350;51.208;4.238;2023-02-01T08:10:32;5.75;;;2.58;;
14526;SDS011;7350;51.208;4.238;2023-02-01T08:13:00;7.35;;;2.72;;
14526;SDS011;7350;51.208;4.238;2023-02-01T08:15:28;8.20;;;3.22;;
14526;SDS011;7350;51.208;4.238;2023-02-01T08:17:55;7.43;;;3.13;;
14526;SDS011;7350;51.208;4.238;2023-02-01T08:20:23;8.23;;;3.38;;
14526;SDS011;7350;51.208;4.238;2023-02-01T08:22:52;8.05;;;2.85;;
14526;SDS011;7350;51.208;4.238;2023-02-01T08:25:20;8.20;;;3.20;;
14526;SDS011;7350;51.208;4.238;2023-02-01T08:27:47;7.78;;;3.15;;
14526;SDS011;7350;51.208;4.238;2023-02-01T08:30:15;7.85;;;2.80;;
14526;SDS011;7350;51.208;4.238;2023-02-01T08:32:42;6.05;;;2.42;;
14526;SDS011;7350;51.208;4.238;2023-02-01T08:35:10;8.57;;;3.10;;
14526;SDS011;7350;51.208;4.238;2023-02-01T08:37:37;7.63;;;2.92;;
14526;SDS011;7350;51.208;4.238;2023-02-01T08:40:05;9.75;;;3.13;;
14526;SDS011;7350;51.208;4.238;2023-02-01T08:42:34;11.10;;;3.00;;
14526;SDS011;7350;51.208;4.238;2023-02-01T08:45:20;7.65;;;2.92;;
14526;SDS011;7350;51.208;4.238;2023-02-01T08:47:48;8.00;;;3.25;;
14526;SDS011;7350;51.208;4.238;2023-02-01T08:50:16;8.50;;;2.88;;
14526;SDS011;7350;51.208;4.238;2023-02-01T08:52:43;7.38;;;3.13;;
14526;SDS011;7350;51.208;4.238;2023-02-01T08:55:11;7.47;;;3.00;;
14526;SDS011;7350;51.208;4.238;2023-02-01T08:57:40;13.50;;;3.03;;
14526;SDS011;7350;51.208;4.238;2023-02-01T09:00:08;11.50;;;3.80;;
14526;SDS011;7350;51.208;4.238;2023-02-01T09:02:39;12.93;;;3.53;;
14526;SDS011;7350;51.208;4.238;2023-02-01T09:05:07;14.15;;;3.95;;
14526;SDS011;7350;51.208;4.238;2023-02-01T09:07:34;13.55;;;3.30;;
14526;SDS011;7350;51.208;4.238;2023-02-01T09:10:02;10.05;;;3.20;;
14526;SDS011;7350;51.208;4.238;2023-02-01T09:12:29;10.90;;;3.08;;
14526;SDS011;7350;51.208;4.238;2023-02-01T09:15:00;9.68;;;3.40;;
14526;SDS011;7350;51.208;4.238;2023-02-01T09:17:27;9.23;;;3.30;;
14526;SDS011;7350;51.208;4.238;2023-02-01T09:19:55;10.98;;;3.30;;
14526;SDS011;7350;51.208;4.238;2023-02-01T09:22:22;10.60;;;3.25;;
14526;SDS011;7350;51.208;4.238;2023-02-01T09:24:49;13.32;;;3.50;;
14526;SDS011;7350;51.208;4.238;2023-02-01T09:27:16;11.85;;;3.58;;
14526;SDS011;7350;51.208;4.238;2023-02-01T09:29:43;9.73;;;3.50;;
14526;SDS011;7350;51.208;4.238;2023-02-01T09:32:12;9.15;;;3.30;;
14526;SDS011;7350;51.208;4.238;2023-02-01T09:34:39;11.18;;;3.45;;
14526;SDS011;7350;51.208;4.238;2023-02-01T09:37:06;8.95;;;3.00;;
14526;SDS011;7350;51.208;4.238;2023-02-01T09:39:33;8.98;;;3.72;;
14526;SDS011;7350;51.208;4.238;2023-02-01T09:42:02;8.63;;;3.30;;
14526;SDS011;7350;51.208;4.238;2023-02-01T09:44:49;9.82;;;3.42;;
14526;SDS011;7350;51.208;4.238;2023-02-01T09:47:37;9.82;;;3.08;;
14526;SDS011;7350;51.208;4.238;2023-02-01T09:50:15;7.40;;;3.67;;
14526;SDS011;7350;51.208;4.238;2023-02-01T09:52:46;6.57;;;3.25;;
14526;SDS011;7350;51.208;4.238;2023-02-01T09:55:19;8.38;;;3.03;;
14526;SDS011;7350;51.208;4.238;2023-02-01T09:58:00;8.40;;;3.45;;
14526;SDS011;7350;51.208;4.238;2023-02-01T10:00:30;6.68;;;3.08;;
14526;SDS011;7350;51.208;4.238;2023-02-01T10:03:02;6.68;;;2.75;;
14526;SDS011;7350;51.208;4.238;2023-02-01T10:05:36;7.55;;;3.05;;
14526;SDS011;7350;51.208;4.238;2023-02-01T10:08:13;8.75;;;3.22;;
14526;SDS011;7350;51.208;4.238;2023-02-01T10:10:47;8.70;;;3.40;;
14526;SDS011;7350;51.208;4.238;2023-02-01T10:13:18;7.18;;;3.00;;
14526;SDS011;7350;51.208;4.238;2023-02-01T10:16:02;5.47;;;2.72;;
14526;SDS011;7350;51.208;4.238;2023-02-01T10:18:46;7.05;;;3.58;;
14526;SDS011;7350;51.208;4.238;2023-02-01T10:21:31;9.15;;;3.28;;
14526;SDS011;7350;51.208;4.238;2023-02-01T10:24:30;8.35;;;3.40;;
14526;SDS011;7350;51.208;4.238;2023-02-01T10:27:07;7.20;;;2.65;;
14526;SDS011;7350;51.208;4.238;2023-02-01T10:29:39;6.45;;;2.78;;
14526;SDS011;7350;51.208;4.238;2023-02-01T10:32:10;7.30;;;2.67;;
14526;SDS011;7350;51.208;4.238;2023-02-01T10:34:41;7.70;;;2.60;;
14526;SDS011;7350;51.208;4.238;2023-02-01T10:37:13;6.82;;;3.10;;
14526;SDS011;7350;51.208;4.238;2023-02-01T10:39:49;6.75;;;3.03;;
14526;SDS011;7350;51.208;4.238;2023-02-01T10:42:20;8.75;;;2.85;;
14526;SDS011;7350;51.208;4.238;2023-02-01T10:44:50;5.85;;;2.63;;
14526;SDS011;7350;51.208;4.238;2023-02-01T10:47:17;6.80;;;2.67;;
14526;SDS011;7350;51.208;4.238;2023-02-01T10:49:47;7.82;;;2.92;;
14526;SDS011;7350;51.208;4.238;2023-02-01T10:52:31;6.05;;;2.65;;
14526;SDS011;7350;51.208;4.238;2023-02-01T10:58:14;5.78;;;2.47;;
14526;SDS011;7350;51.208;4.238;2023-02-01T11:00:43;6.50;;;2.47;;
14526;SDS011;7350;51.208;4.238;2023-02-01T11:06:08;6.65;;;2.90;;
14526;SDS011;7350;51.208;4.238;2023-02-01T11:08:43;6.13;;;2.70;;
14526;SDS011;7350;51.208;4.238;2023-02-01T11:11:12;7.93;;;2.80;;
14526;SDS011;7350;51.208;4.238;2023-02-01T11:13:39;5.38;;;2.60;;
14526;SDS011;7350;51.208;4.238;2023-02-01T11:16:09;5.82;;;2.53;;
14526;SDS011;7350;51.208;4.238;2023-02-01T11:18:40;7.20;;;2.65;;
14526;SDS011;7350;51.208;4.238;2023-02-01T11:21:09;6.43;;;2.72;;
14526;SDS011;7350;51.208;4.238;2023-02-01T11:23:41;4.00;;;2.15;;
14526;SDS011;7350;51.208;4.238;2023-02-01T11:26:12;6.65;;;2.40;;
14526;SDS011;7350;51.208;4.238;2023-02-01T11:28:46;5.65;;;2.35;;
14526;SDS011;7350;51.208;4.238;2023-02-01T11:31:19;7.00;;;2.13;;
14526;SDS011;7350;51.208;4.238;2023-02-01T11:33:49;5.32;;;2.40;;
14526;SDS011;7350;51.208;4.238;2023-02-01T11:36:20;5.65;;;2.30;;
14526;SDS011;7350;51.208;4.238;2023-02-01T11:38:52;7.57;;;2.70;;
14526;SDS011;7350;51.208;4.238;2023-02-01T11:41:22;5.85;;;2.72;;
14526;SDS011;7350;51.208;4.238;2023-02-01T11:43:52;7.05;;;3.10;;
14526;SDS011;7350;51.208;4.238;2023-02-01T11:46:22;7.70;;;3.17;;
14526;SDS011;7350;51.208;4.238;2023-02-01T11:48:53;5.10;;;2.83;;
14526;SDS011;7350;51.208;4.238;2023-02-01T11:51:27;6.43;;;2.90;;
14526;SDS011;7350;51.208;4.238;2023-02-01T11:54:20;6.75;;;2.92;;
14526;SDS011;7350;51.208;4.238;2023-02-01T11:57:01;6.25;;;2.70;;
14526;SDS011;7350;51.208;4.238;2023-02-01T11:59:45;5.80;;;2.80;;
14526;SDS011;7350;51.208;4.238;2023-02-01T12:02:32;5.80;;;2.22;;
14526;SDS011;7350;51.208;4.238;2023-02-01T12:05:11;4.82;;;2.30;;
14526;SDS011;7350;51.208;4.238;2023-02-01T12:07:55;5.65;;;2.15;;
14526;SDS011;7350;51.208;4.238;2023-02-01T12:10:40;6.30;;;2.20;;
14526;SDS011;7350;51.208;4.238;2023-02-01T12:13:21;6.13;;;2.42;;
14526;SDS011;7350;51.208;4.238;2023-02-01T12:16:01;4.63;;;2.13;;
14526;SDS011;7350;51.208;4.238;2023-02-01T12:18:41;3.95;;;2.00;;
14526;SDS011;7350;51.208;4.238;2023-02-01T12:21:41;5.38;;;1.60;;
14526;SDS011;7350;51.208;4.238;2023-02-01T12:24:30;6.72;;;1.95;;
14526;SDS011;7350;51.208;4.238;2023-02-01T12:33:21;5.22;;;2.30;;
14526;SDS011;7350;51.208;4.238;2023-02-01T12:36:05;4.57;;;1.80;;
14526;SDS011;7350;51.208;4.238;2023-02-01T12:38:43;5.85;;;1.95;;
14526;SDS011;7350;51.208;4.238;2023-02-01T12:41:29;5.40;;;2.10;;
14526;SDS011;7350;51.208;4.238;2023-02-01T12:47:11;5.40;;;2.17;;
14526;SDS011;7350;51.208;4.238;2023-02-01T12:49:45;4.38;;;1.92;;
14526;SDS011;7350;51.208;4.238;2023-02-01T12:52:16;3.15;;;1.50;;
14526;SDS011;7350;51.208;4.238;2023-02-01T12:54:48;5.03;;;1.90;;
14526;SDS011;7350;51.208;4.238;2023-02-01T12:57:23;3.20;;;1.50;;
14526;SDS011;7350;51.208;4.238;2023-02-01T12:59:54;4.55;;;1.80;;
14526;SDS011;7350;51.208;4.238;2023-02-01T13:02:27;4.10;;;1.60;;
14526;SDS011;7350;51.208;4.238;2023-02-01T13:05:03;5.22;;;1.88;;
14526;SDS011;7350;51.208;4.238;2023-02-01T13:07:39;4.25;;;1.80;;
14526;SDS011;7350;51.208;4.238;2023-02-01T13:10:12;3.97;;;1.67;;
14526;SDS011;7350;51.208;4.238;2023-02-01T13:12:44;4.45;;;1.90;;
14526;SDS011;7350;51.208;4.238;2023-02-01T13:15:19;3.70;;;1.83;;
14526;SDS011;7350;51.208;4.238;2023-02-01T13:17:50;5.72;;;1.80;;
14526;SDS011;7350;51.208;4.238;2023-02-01T13:20:21;5.75;;;1.90;;
14526;SDS011;7350;51.208;4.238;2023-02-01T13:22:53;6.38;;;1.95;;
14526;SDS011;7350;51.208;4.238;2023-02-01T13:25:28;4.47;;;2.00;;
14526;SDS011;7350;51.208;4.238;2023-02-01T13:28:02;4.68;;;1.73;;
14526;SDS011;7350;51.208;4.238;2023-02-01T13:30:36;5.65;;;1.90;;
14526;SDS011;7350;51.208;4.238;2023-02-01T13:33:26;4.90;;;2.00;;
14526;SDS011;7350;51.208;4.238;2023-02-01T13:36:10;4.18;;;1.95;;
14526;SDS011;7350;51.208;4.238;2023-02-01T13:42:11;5.88;;;2.05;;
14526;SDS011;7350;51.208;4.238;2023-02-01T13:44:45;4.63;;;1.90;;
14526;SDS011;7350;51.208;4.238;2023-02-01T13:47:26;5.80;;;2.08;;
14526;SDS011;7350;51.208;4.238;2023-02-01T13:49:55;6.20;;;1.98;;
14526;SDS011;7350;51.208;4.238;2023-02-01T13:52:35;5.60;;;1.92;;
14526;SDS011;7350;51.208;4.238;2023-02-01T13:55:24;4.88;;;1.80;;
14526;SDS011;7350;51.208;4.238;2023-02-01T13:58:00;5.13;;;1.75;;
14526;SDS011;7350;51.208;4.238;2023-02-01T14:00:38;4.65;;;1.98;;
14526;SDS011;7350;51.208;4.238;2023-02-01T14:03:07;4.95;;;1.90;;
14526;SDS011;7350;51.208;4.238;2023-02-01T14:05:57;4.90;;;2.10;;
14526;SDS011;7350;51.208;4.238;2023-02-01T14:11:40;6.38;;;2.05;;
14526;SDS011;7350;51.208;4.238;2023-02-01T14:23:28;5.15;;;1.88;;
14526;SDS011;7350;51.208;4.238;2023-02-01T14:28:58;7.35;;;2.00;;
14526;SDS011;7350;51.208;4.238;2023-02-01T14:31:31;4.22;;;1.52;;
14526;SDS011;7350;51.208;4.238;2023-02-01T14:34:11;5.93;;;2.08;;
14526;SDS011;7350;51.208;4.238;2023-02-01T14:36:52;4.93;;;1.80;;
14526;SDS011;7350;51.208;4.238;2023-02-01T14:39:33;6.25;;;1.90;;
14526;SDS011;7350;51.208;4.238;2023-02-01T14:42:05;6.35;;;2.00;;
14526;SDS011;7350;51.208;4.238;2023-02-01T14:44:42;4.68;;;1.80;;
14526;SDS011;7350;51.208;4.238;2023-02-01T14:50:16;5.28;;;2.00;;
14526;SDS011;7350;51.208;4.238;2023-02-01T14:55:47;4.38;;;1.63;;
14526;SDS011;7350;51.208;4.238;2023-02-01T14:58:27;4.45;;;2.15;;
14526;SDS011;7350;51.208;4.238;2023-02-01T15:01:00;5.53;;;1.70;;
14526;SDS011;7350;51.208;4.238;2023-02-01T15:03:39;6.05;;;1.90;;
14526;SDS011;7350;51.208;4.238;2023-02-01T15:06:32;3.92;;;1.58;;
14526;SDS011;7350;51.208;4.238;2023-02-01T15:09:04;3.72;;;1.85;;
14526;SDS011;7350;51.208;4.238;2023-02-01T15:14:24;6.25;;;1.80;;
14526;SDS011;7350;51.208;4.238;2023-02-01T15:16:52;3.95;;;1.50;;
14526;SDS011;7350;51.208;4.238;2023-02-01T15:19:20;4.22;;;1.77;;
14526;SDS011;7350;51.208;4.238;2023-02-01T15:21:51;4.07;;;1.75;;
14526;SDS011;7350;51.208;4.238;2023-02-01T15:24:20;5.68;;;1.98;;
14526;SDS011;7350;51.208;4.238;2023-02-01T15:26:48;5.38;;;1.85;;
14526;SDS011;7350;51.208;4.238;2023-02-01T15:29:23;4.30;;;1.88;;
14526;SDS011;7350;51.208;4.238;2023-02-01T15:31:52;4.20;;;1.50;;
14526;SDS011;7350;51.208;4.238;2023-02-01T15:34:20;5.43;;;2.38;;
14526;SDS011;7350;51.208;4.238;2023-02-01T15:36:47;4.28;;;1.80;;
14526;SDS011;7350;51.208;4.238;2023-02-01T15:39:20;4.63;;;1.85;;
14526;SDS011;7350;51.208;4.238;2023-02-01T15:41:51;5.55;;;2.00;;
14526;SDS011;7350;51.208;4.238;2023-02-01T15:44:22;4.43;;;2.00;;
14526;SDS011;7350;51.208;4.238;2023-02-01T15:46:58;5.28;;;1.98;;
14526;SDS011;7350;51.208;4.238;2023-02-01T15:49:27;6.30;;;2.40;;
14526;SDS011;7350;51.208;4.238;2023-02-01T15:51:58;3.88;;;1.85;;
14526;SDS011;7350;51.208;4.238;2023-02-01T15:54:27;4.85;;;1.83;;
14526;SDS011;7350;51.208;4.238;2023-02-01T15:56:58;3.90;;;1.60;;
14526;SDS011;7350;51.208;4.238;2023-02-01T15:59:29;4.03;;;2.20;;
14526;SDS011;7350;51.208;4.238;2023-02-01T16:01:59;5.85;;;2.20;;
14526;SDS011;7350;51.208;4.238;2023-02-01T16:04:27;4.70;;;1.80;;
14526;SDS011;7350;51.208;4.238;2023-02-01T16:06:56;3.38;;;1.60;;
14526;SDS011;7350;51.208;4.238;2023-02-01T16:09:35;6.30;;;1.92;;
14526;SDS011;7350;51.208;4.238;2023-02-01T16:12:28;4.60;;;1.83;;
14526;SDS011;7350;51.208;4.238;2023-02-01T16:15:00;5.50;;;2.05;;
14526;SDS011;7350;51.208;4.238;2023-02-01T16:17:27;3.88;;;2.03;;